Time;durP1;ratioP1;P1;durP2;ratioP2;P2;SDS_P1;SDS_P2;PMS_P1;PMS_P2;Temp;Humidity;BMP_temperature;BMP_pressure;BME280_temperature;BME280_humidity;BME280_pressure;Samples;Min_cycle;Max_cycle;Signal;HPM_P1;HPM_P2
2023/10/03 00:01:21;;;;;;;38.17;20.50;;;;;;;17.52;100.00;100977.38;5051601;28;20049;-55
2023/10/03 00:03:48;;;;;;;39.67;21.13;;;;;;;17.55;100.00;100971.69;5053010;28;20052;-53
2023/10/03 00:06:14;;;;;;;37.95;20.95;;;;;;;17.54;100.00;100969.16;5049467;28;20375;-53
2023/10/03 00:08:44;;;;;;;39.45;21.10;;;;;;;17.57;100.00;100963.47;5051359;28;20278;-53
2023/10/03 00:11:19;;;;;;;40.53;21.20;;;;;;;17.57;100.00;100958.94;5052916;28;20044;-52
2023/10/03 00:13:44;;;;;;;39.55;21.55;;;;;;;17.59;100.00;100953.41;5049988;28;20044;-55
2023/10/03 00:16:10;;;;;;;38.95;22.27;;;;;;;17.59;100.00;100942.66;5052185;28;20148;-54
2023/10/03 00:18:35;;;;;;;40.10;22.00;;;;;;;17.59;100.00;100939.97;5051426;28;20032;-55
2023/10/03 00:21:01;;;;;;;38.25;21.48;;;;;;;17.59;100.00;100939.13;5051267;28;20452;-56
2023/10/03 00:23:27;;;;;;;38.83;20.85;;;;;;;17.59;100.00;100941.81;5042133;28;20033;-55
2023/10/03 00:25:54;;;;;;;39.67;21.63;;;;;;;17.55;100.00;100941.28;5049127;28;20025;-52
2023/10/03 00:28:20;;;;;;;41.95;21.73;;;;;;;17.52;100.00;100937.09;5049497;28;20456;-52
2023/10/03 00:30:46;;;;;;;38.13;21.50;;;;;;;17.53;100.00;100937.91;5050733;28;20025;-52
2023/10/03 00:33:13;;;;;;;40.75;21.83;;;;;;;17.53;100.00;100937.91;5052301;28;20027;-52
2023/10/03 00:35:40;;;;;;;38.90;21.40;;;;;;;17.50;100.00;100932.84;5052230;28;20053;-52
2023/10/03 00:38:09;;;;;;;38.47;20.90;;;;;;;17.48;100.00;100924.13;5051616;28;20550;-52
2023/10/03 00:40:36;;;;;;;39.92;20.85;;;;;;;17.47;100.00;100920.63;5048362;28;20032;-53
2023/10/03 00:43:01;;;;;;;43.40;20.10;;;;;;;17.47;100.00;100917.06;5051735;28;20118;-52
2023/10/03 00:45:32;;;;;;;37.25;20.52;;;;;;;17.43;100.00;100904.97;5049699;28;20479;-52
2023/10/03 00:47:58;;;;;;;41.45;22.40;;;;;;;17.41;100.00;100896.25;5051990;28;20017;-53
2023/10/03 00:50:26;;;;;;;37.30;20.80;;;;;;;17.37;100.00;100888.50;5048416;28;20040;-52
2023/10/03 00:52:55;;;;;;;40.47;21.35;;;;;;;17.40;100.00;100887.34;5051225;28;20035;-52
2023/10/03 00:55:29;;;;;;;40.65;21.92;;;;;;;17.38;100.00;100879.44;5051660;28;20078;-52
2023/10/03 01:00:38;;;;;;;38.70;20.52;;;;;;;17.34;100.00;100867.34;5052084;28;20391;-52
2023/10/03 01:03:09;;;;;;;40.38;20.90;;;;;;;17.35;100.00;100862.81;5048550;28;20029;-54
2023/10/03 01:05:34;;;;;;;41.70;21.35;;;;;;;17.35;100.00;100858.31;5051342;28;20036;-51
2023/10/03 01:08:00;;;;;;;38.83;20.58;;;;;;;17.37;100.00;100850.09;5050935;28;20041;-52
2023/10/03 01:10:25;;;;;;;40.08;20.60;;;;;;;17.33;100.00;100840.66;5051382;28;20438;-52
2023/10/03 01:12:54;;;;;;;37.85;20.60;;;;;;;17.32;100.00;100837.16;5051579;28;20379;-52
2023/10/03 01:15:22;;;;;;;;;;;;;;;17.38;100.00;100836.47;5052353;28;20029;-53
2023/10/03 01:17:52;;;;;;;38.83;19.55;;;;;;;17.31;100.00;100826.56;5051538;28;20353;-52
2023/10/03 01:20:21;;;;;;;38.70;20.05;;;;;;;17.31;100.00;100827.41;5051203;28;20107;-53
2023/10/03 01:22:51;;;;;;;38.95;20.13;;;;;;;17.29;100.00;100833.97;5051412;28;20029;-51
2023/10/03 01:25:16;;;;;;;37.45;20.08;;;;;;;17.28;100.00;100825.03;5050974;28;20025;-53
2023/10/03 01:27:42;;;;;;;36.25;20.02;;;;;;;17.28;100.00;100822.34;5051319;28;20033;-55
2023/10/03 01:30:08;;;;;;;36.55;19.75;;;;;;;17.27;100.00;100820.69;5051692;28;20028;-52
2023/10/03 01:32:38;;;;;;;40.25;19.73;;;;;;;17.22;100.00;100809.59;5047074;28;20029;-52
2023/10/03 01:35:09;;;;;;;35.45;19.35;;;;;;;17.25;100.00;100811.09;5051575;28;20578;-53
2023/10/03 01:37:34;;;;;;;35.42;19.35;;;;;;;17.31;100.00;100819.34;5050482;28;20033;-55
2023/10/03 01:40:00;;;;;;;35.15;19.02;;;;;;;17.33;100.00;100811.13;5050724;28;20171;-54
2023/10/03 01:42:25;;;;;;;35.50;18.85;;;;;;;17.35;100.00;100803.75;5050875;28;20079;-54
2023/10/03 01:44:50;;;;;;;34.97;18.17;;;;;;;17.34;100.00;100802.09;5050636;28;20020;-54
2023/10/03 01:47:16;;;;;;;35.88;18.75;;;;;;;17.34;100.00;100815.50;5051011;28;20107;-53
2023/10/03 01:49:42;;;;;;;35.83;18.33;;;;;;;17.36;100.00;100813.50;5050829;28;20031;-53
2023/10/03 01:52:07;;;;;;;31.42;18.10;;;;;;;17.38;100.00;100809.63;5054363;28;20037;-52
2023/10/03 01:54:34;;;;;;;31.88;17.67;;;;;;;17.41;100.00;100811.16;5055449;28;20494;-53
2023/10/03 01:57:00;;;;;;;34.33;19.27;;;;;;;17.45;100.00;100809.00;5054599;28;20025;-56
2023/10/03 01:59:25;;;;;;;32.60;18.17;;;;;;;17.47;100.00;100807.84;5054769;28;20029;-55
2023/10/03 02:01:51;;;;;;;30.55;17.48;;;;;;;17.50;100.00;100801.28;5051102;28;20132;-54
2023/10/03 02:04:16;;;;;;;33.95;18.58;;;;;;;17.52;100.00;100810.88;5054165;28;20040;-53
2023/10/03 02:06:42;;;;;;;30.35;18.05;;;;;;;17.56;99.91;100801.47;5054933;28;20107;-54
2023/10/03 02:09:08;;;;;;;33.00;18.08;;;;;;;17.59;100.00;100800.31;5055006;28;20057;-54
2023/10/03 02:11:34;;;;;;;31.55;17.85;;;;;;;17.57;99.87;100799.66;5054163;28;20024;-53
2023/10/03 02:14:03;;;;;;;33.15;17.00;;;;;;;17.61;99.77;100797.47;5054834;28;20033;-54
2023/10/03 02:16:28;;;;;;;31.48;17.38;;;;;;;17.60;99.94;100785.03;5054925;28;20017;-53
2023/10/03 02:18:55;;;;;;;32.80;17.95;;;;;;;17.60;100.00;100780.47;5054356;28;20132;-54
2023/10/03 02:21:21;;;;;;;34.00;17.52;;;;;;;17.59;100.00;100775.31;5055200;28;20025;-55
2023/10/03 02:23:47;;;;;;;32.40;17.58;;;;;;;17.60;99.67;100761.69;5054728;28;20040;-52
2023/10/03 02:26:16;;;;;;;29.92;16.83;;;;;;;17.63;100.00;100764.03;5054492;28;20463;-53
2023/10/03 02:28:41;;;;;;;33.70;17.53;;;;;;;17.65;99.93;100777.31;5052464;28;20032;-52
2023/10/03 02:31:07;;;;;;;30.52;17.27;;;;;;;17.67;99.16;100786.03;5053534;28;20025;-55
2023/10/03 02:33:40;;;;;;;29.70;16.38;;;;;;;17.64;99.53;100783.72;5054837;28;20502;-52
2023/10/03 02:36:06;;;;;;;33.25;17.23;;;;;;;17.65;99.48;100780.84;5054848;28;20548;-52
2023/10/03 02:38:36;;;;;;;31.48;17.40;;;;;;;17.65;99.97;100788.91;5054600;28;20021;-53
2023/10/03 02:41:02;;;;;;;34.42;16.77;;;;;;;17.65;99.37;100777.31;5053943;28;20025;-52
2023/10/03 02:43:31;;;;;;;30.92;17.05;;;;;;;17.65;99.46;100791.59;5053938;28;20106;-53
2023/10/03 02:45:58;;;;;;;32.97;16.35;;;;;;;17.68;99.27;100787.72;5049454;28;20025;-55
2023/10/03 02:48:24;;;;;;;30.50;16.27;;;;;;;17.71;99.08;100785.53;5053248;28;20027;-55
2023/10/03 02:50:50;;;;;;;33.72;16.83;;;;;;;17.71;98.63;100788.22;5053448;28;20017;-52
2023/10/03 02:53:20;;;;;;;29.25;15.80;;;;;;;17.75;98.21;100794.09;5052400;28;20029;-53
2023/10/03 02:55:51;;;;;;;32.00;16.42;;;;;;;17.74;98.41;100797.81;5053269;28;20021;-52
2023/10/03 02:58:17;;;;;;;30.77;16.83;;;;;;;17.76;98.45;100801.19;5051734;28;20537;-55
2023/10/03 03:00:46;;;;;;;29.10;16.00;;;;;;;17.76;98.68;100801.19;5052950;28;20029;-52
2023/10/03 03:03:11;;;;;;;;;;;;;;;17.80;98.79;100796.31;5050322;28;20029;-55
2023/10/03 03:05:37;;;;;;;29.67;14.27;;;;;;;17.84;98.69;100795.81;5052378;28;19912;-55
2023/10/03 03:10:51;;;;;;;23.83;12.70;;;;;;;17.99;99.72;100789.81;5050473;28;20072;-56
2023/10/03 03:13:18;;;;;;;24.80;13.20;;;;;;;18.10;99.78;100782.25;5052572;28;20025;-56
2023/10/03 03:15:51;;;;;;;24.60;11.98;;;;;;;18.19;99.36;100791.16;5049089;28;20021;-54
2023/10/03 03:18:19;;;;;;;23.23;12.60;;;;;;;18.19;99.73;100790.31;5050130;28;20029;-54
2023/10/03 03:20:50;;;;;;;23.98;12.45;;;;;;;18.19;98.99;100791.16;5051019;28;20039;-55
2023/10/03 03:23:16;;;;;;;24.00;12.68;;;;;;;18.17;99.40;100793.19;5052688;28;20021;-55
2023/10/03 03:25:43;;;;;;;27.08;13.43;;;;;;;18.16;98.27;100796.03;5051169;28;20053;-54
2023/10/03 03:28:15;;;;;;;25.63;12.88;;;;;;;18.11;98.59;100788.47;5052844;28;20071;-54
2023/10/03 03:30:45;;;;;;;26.65;13.35;;;;;;;18.11;98.26;100783.91;5047383;28;20471;-54
2023/10/03 03:33:19;;;;;;;22.40;12.93;;;;;;;18.09;98.24;100791.31;5052704;28;20398;-56
2023/10/03 03:35:46;;;;;;;25.85;13.35;;;;;;;18.04;98.55;100776.72;5049711;28;20029;-55
2023/10/03 03:38:15;;;;;;;24.23;12.35;;;;;;;18.03;98.40;100788.47;5052441;28;20025;-56
2023/10/03 03:40:45;;;;;;;24.50;13.48;;;;;;;18.04;98.74;100790.97;5052341;28;20100;-53
2023/10/03 03:43:12;;;;;;;26.07;12.33;;;;;;;18.04;98.73;100787.47;5015427;28;1051140;-52
2023/10/03 03:45:37;;;;;;;22.45;12.50;;;;;;;18.05;98.86;100791.81;5053102;28;20139;-56
2023/10/03 03:48:06;;;;;;;25.70;12.48;;;;;;;18.02;99.13;100790.31;5053198;28;20112;-53
2023/10/03 03:50:31;;;;;;;23.60;11.85;;;;;;;18.06;99.80;100790.81;5052369;28;20032;-55
2023/10/03 03:52:59;;;;;;;24.25;11.18;;;;;;;18.09;100.00;100795.88;5053206;28;20033;-52
2023/10/03 03:55:29;;;;;;;24.55;11.73;;;;;;;18.11;100.00;100797.34;5053193;28;20045;-53
2023/10/03 03:57:56;;;;;;;21.80;11.35;;;;;;;18.11;100.00;100799.22;5053514;28;20115;-54
2023/10/03 04:00:23;;;;;;;21.25;10.95;;;;;;;18.16;100.00;100809.47;5052426;28;20048;-52
2023/10/03 04:02:49;;;;;;;20.77;10.98;;;;;;;18.20;100.00;100806.28;5052689;28;20033;-53
2023/10/03 04:05:17;;;;;;;21.85;10.20;;;;;;;18.21;100.00;100817.88;5052394;28;20467;-52
2023/10/03 04:07:43;;;;;;;17.95;9.50;;;;;;;18.20;100.00;100811.66;5052733;28;20029;-53
2023/10/03 04:10:10;;;;;;;16.70;8.55;;;;;;;18.27;100.00;100814.50;5052846;28;20044;-55
2023/10/03 04:12:41;;;;;;;19.63;9.10;;;;;;;18.29;100.00;100828.63;5049706;28;20036;-53
2023/10/03 04:15:14;;;;;;;15.63;8.38;;;;;;;18.30;100.00;100820.38;5052137;28;20044;-55
2023/10/03 04:17:40;;;;;;;17.55;8.43;;;;;;;18.30;100.00;100831.16;5047643;28;20126;-55
2023/10/03 04:20:18;;;;;;;17.55;8.25;;;;;;;18.32;99.95;100820.22;5051924;28;20099;-53
2023/10/03 04:22:43;;;;;;;15.65;7.80;;;;;;;18.37;98.99;100838.50;5053267;28;20039;-51
2023/10/03 04:25:13;;;;;;;16.42;7.55;;;;;;;18.35;99.11;100838.69;5049678;28;20136;-52
2023/10/03 04:27:40;;;;;;;14.02;7.45;;;;;;;18.38;98.92;100843.72;5051682;28;20040;-53
2023/10/03 04:30:09;;;;;;;15.07;7.80;;;;;;;18.37;98.49;100851.97;5052361;28;20020;-52
2023/10/03 04:32:34;;;;;;;;;;;;;;;18.40;98.32;100843.56;5048427;28;20475;-52
2023/10/03 04:34:59;;;;;;;15.23;6.67;;;;;;;18.38;97.32;100850.97;5052476;28;19917;-55
2023/10/03 04:37:24;;;;;;;14.45;6.53;;;;;;;18.37;97.30;100846.59;5051556;28;20017;-55
2023/10/03 04:39:50;;;;;;;11.27;6.18;;;;;;;18.38;96.87;100850.97;5052326;28;20545;-53
2023/10/03 04:42:15;;;;;;;13.95;5.60;;;;;;;18.37;96.39;100854.66;5051757;28;20083;-53
2023/10/03 04:44:41;;;;;;;13.60;6.30;;;;;;;18.35;96.59;100854.81;5051948;28;20021;-52
2023/10/03 04:47:09;;;;;;;12.70;5.95;;;;;;;18.33;96.11;100864.06;5052039;28;20425;-52
2023/10/03 04:49:35;;;;;;;13.98;5.93;;;;;;;18.30;96.84;100868.78;5051297;28;20028;-52
2023/10/03 04:52:00;;;;;;;11.98;5.70;;;;;;;18.27;97.20;100874.50;5052055;28;20094;-53
2023/10/03 04:54:25;;;;;;;15.55;5.65;;;;;;;18.25;96.68;100873.81;5052181;28;20086;-52
2023/10/03 04:56:51;;;;;;;13.57;6.33;;;;;;;18.25;95.88;100875.66;5050951;28;20434;-55
2023/10/03 04:59:18;;;;;;;12.63;5.97;;;;;;;18.23;96.01;100883.06;5049818;28;20358;-53
2023/10/03 05:01:44;;;;;;;13.83;6.73;;;;;;;18.22;95.66;100882.22;5050649;28;20094;-54
2023/10/03 05:04:12;;;;;;;16.27;5.90;;;;;;;18.18;96.17;100869.28;5051959;28;20483;-52
2023/10/03 05:06:37;;;;;;;12.13;5.82;;;;;;;18.16;96.21;100882.06;5051647;28;20507;-53
2023/10/03 05:09:04;;;;;;;13.50;5.97;;;;;;;18.14;95.82;100884.06;5051530;28;20116;-54
2023/10/03 05:11:30;;;;;;;13.70;5.68;;;;;;;18.12;95.80;100900.38;5051012;28;20029;-53
2023/10/03 05:13:55;;;;;;;10.65;5.55;;;;;;;18.10;95.58;100897.84;5051694;28;20082;-52
2023/10/03 05:16:21;;;;;;;12.85;5.93;;;;;;;18.11;95.26;100914.78;5049468;28;20056;-54
2023/10/03 05:18:46;;;;;;;10.77;5.97;;;;;;;18.09;94.79;100924.88;5050609;28;20384;-54
2023/10/03 05:21:13;;;;;;;14.95;6.22;;;;;;;18.08;95.26;100931.25;5046387;28;20402;-53
2023/10/03 05:23:41;;;;;;;14.50;5.93;;;;;;;18.05;95.74;100920.81;5052358;28;20025;-55
2023/10/03 05:26:07;;;;;;;12.68;5.90;;;;;;;18.04;95.62;100911.94;5051228;28;20025;-53
2023/10/03 05:28:34;;;;;;;18.75;5.95;;;;;;;18.02;96.04;100892.44;5051297;28;20071;-55
2023/10/03 05:30:59;;;;;;;9.88;6.03;;;;;;;17.99;96.68;100895.47;5049066;28;20037;-55
2023/10/03 05:33:25;;;;;;;11.73;5.63;;;;;;;17.98;96.80;100892.94;5051657;28;20039;-54
2023/10/03 05:35:50;;;;;;;15.85;6.28;;;;;;;17.96;96.31;100892.25;5051061;28;20036;-54
2023/10/03 05:38:16;;;;;;;14.52;6.00;;;;;;;17.97;96.55;100899.31;5051364;28;20029;-55
2023/10/03 05:40:43;;;;;;;11.38;5.97;;;;;;;17.93;97.01;100899.63;5051238;28;20036;-56
2023/10/03 05:43:08;;;;;;;14.27;6.50;;;;;;;17.92;96.70;100908.72;5050848;28;20537;-53
2023/10/03 05:45:35;;;;;;;15.52;6.25;;;;;;;17.92;96.71;100919.47;5045158;28;20025;-56
2023/10/03 05:48:00;;;;;;;13.73;6.05;;;;;;;17.90;97.28;100908.03;5046337;28;20065;-53
2023/10/03 05:50:26;;;;;;;12.77;6.05;;;;;;;17.89;97.24;100906.34;5048319;28;20017;-53
2023/10/03 05:52:51;;;;;;;12.40;5.68;;;;;;;17.90;97.17;100912.56;5049735;28;20037;-54
2023/10/03 05:55:16;;;;;;;13.00;5.80;;;;;;;17.88;97.60;100917.25;5050216;28;20029;-53
2023/10/03 05:57:42;;;;;;;9.32;6.03;;;;;;;17.86;97.54;100914.69;5042257;28;20025;-53
2023/10/03 06:00:09;;;;;;;16.30;5.65;;;;;;;17.84;97.97;100908.66;5041913;28;20087;-52
2023/10/03 06:02:39;;;;;;;15.05;6.15;;;;;;;17.85;97.62;100922.91;5045994;28;20094;-53
2023/10/03 06:05:07;;;;;;;13.45;5.97;;;;;;;17.84;97.67;100919.41;5047081;28;20112;-53
2023/10/03 06:07:33;;;;;;;11.50;5.90;;;;;;;17.82;97.77;100921.41;5038534;28;20306;-52
2023/10/03 06:09:58;;;;;;;11.70;5.47;;;;;;;17.82;98.17;100913.34;5044041;28;20028;-52
2023/10/03 06:12:24;;;;;;;8.18;4.95;;;;;;;17.82;98.16;100924.09;5041379;28;20025;-53
2023/10/03 06:14:50;;;;;;;11.13;5.80;;;;;;;17.81;97.96;100910.84;5044319;28;20029;-53
2023/10/03 06:17:17;;;;;;;10.50;5.10;;;;;;;17.81;98.23;100924.28;5046093;28;20448;-53
2023/10/03 06:19:43;;;;;;;11.30;5.30;;;;;;;17.79;98.80;100931.66;5050825;28;20024;-52
2023/10/03 06:22:08;;;;;;;11.05;5.97;;;;;;;17.80;98.47;100941.38;5045068;28;20032;-53
2023/10/03 06:24:34;;;;;;;11.65;6.05;;;;;;;17.81;99.20;100926.94;5050646;28;20056;-54
2023/10/03 06:26:59;;;;;;;11.68;5.75;;;;;;;17.79;100.00;100935.19;5048781;28;20017;-53
2023/10/03 06:29:25;;;;;;;12.93;5.93;;;;;;;17.78;100.00;100944.22;5046232;28;20035;-53
2023/10/03 06:31:51;;;;;;;13.20;6.07;;;;;;;17.77;99.89;100942.56;5046065;28;20230;-52
2023/10/03 06:34:18;;;;;;;13.73;6.50;;;;;;;17.73;100.00;100935.81;5042738;28;20465;-52
2023/10/03 06:36:43;;;;;;;12.85;5.88;;;;;;;17.75;100.00;100945.41;5047726;28;20037;-55
2023/10/03 06:39:09;;;;;;;12.27;5.93;;;;;;;17.75;100.00;100942.72;5051516;28;20021;-55
2023/10/03 06:41:34;;;;;;;12.68;6.15;;;;;;;17.68;100.00;100930.91;5050473;28;20487;-53
2023/10/03 06:44:01;;;;;;;13.13;6.18;;;;;;;17.76;100.00;100959.69;5049061;28;20045;-52
2023/10/03 06:46:26;;;;;;;17.52;6.45;;;;;;;17.75;100.00;100953.47;5049646;28;20048;-52
2023/10/03 06:48:52;;;;;;;14.20;6.35;;;;;;;17.76;100.00;100963.19;5051803;28;20439;-51
2023/10/03 06:51:17;;;;;;;12.25;6.35;;;;;;;17.76;100.00;100971.25;5052579;28;20017;-51
2023/10/03 06:53:46;;;;;;;12.70;6.60;;;;;;;17.77;100.00;100974.81;5051438;28;20083;-53
2023/10/03 06:56:12;;;;;;;;;;;;;;;17.84;99.86;100983.88;5053863;28;20017;-51
2023/10/03 06:58:37;;;;;;;12.83;6.07;;;;;;;17.78;100.00;100989.06;5051226;28;19943;-52
2023/10/03 07:01:02;;;;;;;14.25;6.43;;;;;;;17.77;100.00;100982.84;5049051;28;20329;-51
2023/10/03 07:03:29;;;;;;;13.38;6.07;;;;;;;17.78;100.00;100992.59;5046774;28;20372;-51
2023/10/03 07:05:55;;;;;;;13.30;6.47;;;;;;;17.78;100.00;100994.44;5045602;28;20036;-51
2023/10/03 07:08:20;;;;;;;13.52;6.15;;;;;;;17.79;100.00;100988.91;5048827;28;20017;-50
2023/10/03 07:10:46;;;;;;;11.75;6.30;;;;;;;17.75;100.00;100983.03;5050566;28;20089;-51
2023/10/03 07:13:12;;;;;;;11.93;6.18;;;;;;;17.76;100.00;100991.91;5053602;28;20099;-50
2023/10/03 07:15:39;;;;;;;12.63;6.30;;;;;;;17.71;100.00;100987.00;5053908;28;20029;-49
2023/10/03 07:18:05;;;;;;;10.70;6.07;;;;;;;17.72;100.00;100991.41;5051114;28;20033;-53
2023/10/03 07:20:30;;;;;;;12.13;6.45;;;;;;;17.71;100.00;100999.63;5053559;28;20040;-50
2023/10/03 07:22:56;;;;;;;14.13;6.90;;;;;;;17.67;100.00;101003.59;5051894;28;20062;-50
2023/10/03 07:25:21;;;;;;;15.85;8.30;;;;;;;17.64;100.00;101006.63;5051821;28;20021;-54
2023/10/03 07:27:48;;;;;;;16.50;7.65;;;;;;;17.62;100.00;101008.63;5050018;28;20511;-52
2023/10/03 07:30:15;;;;;;;12.95;6.93;;;;;;;17.56;100.00;100989.47;5051230;28;20033;-53
2023/10/03 07:32:41;;;;;;;12.45;7.20;;;;;;;17.55;100.00;100997.66;5049917;28;20453;-53
2023/10/03 07:35:10;;;;;;;15.55;7.65;;;;;;;17.54;100.00;100999.53;5053346;28;20096;-53
2023/10/03 07:37:36;;;;;;;14.00;7.88;;;;;;;17.54;100.00;101007.59;5053082;28;20037;-51
2023/10/03 07:40:02;;;;;;;17.00;7.63;;;;;;;17.56;100.00;101007.44;5051683;28;20033;-53
2023/10/03 07:42:30;;;;;;;13.70;7.97;;;;;;;17.56;100.00;101016.31;5052547;28;20060;-51
2023/10/03 07:44:56;;;;;;;12.27;8.13;;;;;;;17.60;100.00;101026.75;5046011;28;20078;-51
2023/10/03 07:47:21;;;;;;;12.65;7.63;;;;;;;17.57;100.00;101034.13;5045859;28;20042;-53
2023/10/03 07:49:48;;;;;;;12.10;6.88;;;;;;;17.57;100.00;101044.88;5050733;28;20033;-50
2023/10/03 07:52:19;;;;;;;14.70;7.70;;;;;;;17.56;100.00;101043.16;5048990;28;20017;-50
2023/10/03 07:54:47;;;;;;;14.95;7.20;;;;;;;17.56;100.00;101053.91;5044575;28;20036;-51
2023/10/03 07:57:13;;;;;;;14.27;7.18;;;;;;;17.56;100.00;101045.84;5045308;28;20017;-50
2023/10/03 07:59:39;;;;;;;16.42;7.07;;;;;;;17.56;100.00;101031.59;5040887;28;20368;-50
2023/10/03 08:02:10;;;;;;;12.50;7.57;;;;;;;17.55;100.00;101037.94;5045154;28;20037;-50
2023/10/03 08:04:37;;;;;;;13.70;6.95;;;;;;;17.55;100.00;101051.38;5047721;28;20044;-51
2023/10/03 08:07:04;;;;;;;11.25;6.97;;;;;;;17.55;100.00;101063.00;5046788;28;20036;-51
2023/10/03 08:09:31;;;;;;;13.13;6.63;;;;;;;17.55;100.00;101078.25;5049878;28;20025;-52
2023/10/03 08:11:57;;;;;;;9.95;6.95;;;;;;;17.53;100.00;101104.41;5044796;28;20029;-51
2023/10/03 08:14:23;;;;;;;13.68;7.53;;;;;;;17.48;100.00;101094.13;5049619;28;20028;-53
2023/10/03 08:16:49;;;;;;;10.95;6.28;;;;;;;17.44;100.00;101090.09;5052031;28;20029;-52
2023/10/03 08:19:24;;;;;;;13.45;6.22;;;;;;;17.38;100.00;101104.13;5052308;28;20033;-51
2023/10/03 08:21:52;;;;;;;11.73;5.45;;;;;;;17.32;100.00;101121.72;5045852;28;20075;-51
2023/10/03 08:24:24;;;;;;;6.85;4.38;;;;;;;17.28;100.00;101132.91;5049293;28;20060;-51
2023/10/03 08:26:51;;;;;;;9.35;4.25;;;;;;;17.22;100.00;101118.28;5052312;28;20364;-50
2023/10/03 08:29:23;;;;;;;11.18;4.20;;;;;;;17.22;100.00;101123.66;5042099;28;20025;-50
2023/10/03 08:31:59;;;;;;;7.38;3.55;;;;;;;17.22;100.00;101137.06;5046544;28;20060;-52
2023/10/03 08:34:25;;;;;;;7.32;3.20;;;;;;;17.18;100.00;101136.50;5051370;28;20052;-51
2023/10/03 08:36:54;;;;;;;5.55;3.53;;;;;;;17.22;100.00;101130.84;5048625;28;20036;-52
2023/10/03 08:39:23;;;;;;;7.20;3.47;;;;;;;17.26;100.00;101137.59;5050845;28;20455;-54
2023/10/03 08:42:12;;;;;;;8.32;3.20;;;;;;;17.31;100.00;101149.56;5050808;28;20040;-50
2023/10/03 08:44:49;;;;;;;8.55;3.60;;;;;;;17.33;100.00;101152.09;5049202;28;20037;-51
2023/10/03 08:47:22;;;;;;;7.25;3.22;;;;;;;17.35;100.00;101163.50;5049230;28;20029;-51
2023/10/03 08:49:56;;;;;;;7.30;2.70;;;;;;;17.36;100.00;101167.91;5052197;28;20028;-51
2023/10/03 08:52:24;;;;;;;8.70;2.78;;;;;;;17.36;100.00;101166.03;5049756;28;20537;-50
2023/10/03 08:54:54;;;;;;;6.18;2.38;;;;;;;17.42;100.00;101179.84;5051375;28;20519;-51
2023/10/03 08:57:23;;;;;;;5.35;2.50;;;;;;;17.38;100.00;101173.94;5052006;28;20474;-50
2023/10/03 08:59:48;;;;;;;6.93;2.33;;;;;;;17.38;100.00;101188.22;5049655;28;20032;-51
2023/10/03 09:02:14;;;;;;;3.78;1.52;;;;;;;17.33;100.00;101205.78;5048258;28;20021;-50
2023/10/03 09:04:40;;;;;;;3.80;1.20;;;;;;;17.24;100.00;101220.13;5048478;28;20029;-51
2023/10/03 09:07:08;;;;;;;5.25;1.10;;;;;;;17.15;100.00;101222.72;5050135;28;20479;-50
2023/10/03 09:09:41;;;;;;;1.27;0.85;;;;;;;17.11;100.00;101218.66;5050380;28;20060;-51
2023/10/03 09:12:12;;;;;;;2.65;0.90;;;;;;;17.08;100.00;101229.69;5046886;28;20024;-51
2023/10/03 09:14:38;;;;;;;1.23;0.73;;;;;;;17.13;100.00;101227.38;5049710;28;20032;-50
2023/10/03 09:17:04;;;;;;;1.40;1.00;;;;;;;17.13;100.00;101242.66;5051669;28;20029;-51
2023/10/03 09:19:44;;;;;;;1.77;1.08;;;;;;;17.16;100.00;101245.03;5048774;28;20044;-51
2023/10/03 09:22:15;;;;;;;2.88;1.42;;;;;;;17.14;100.00;101258.63;5051734;28;20022;-51
2023/10/03 09:24:44;;;;;;;3.70;1.10;;;;;;;17.17;100.00;101278.94;5051588;28;20469;-50
2023/10/03 09:27:17;;;;;;;;;;;;;;;17.26;100.00;101267.28;5051350;28;20037;-51
2023/10/03 09:29:45;;;;;;;5.90;1.63;;;;;;;17.19;100.00;101285.00;5049306;28;19916;-51
2023/10/03 09:32:15;;;;;;;3.78;1.38;;;;;;;17.20;100.00;101287.53;5049633;28;20033;-50
2023/10/03 09:34:46;;;;;;;6.57;1.60;;;;;;;17.19;100.00;101293.06;5050513;28;20037;-51
2023/10/03 09:37:12;;;;;;;3.78;1.30;;;;;;;17.22;100.00;101287.41;5048054;28;20037;-51
2023/10/03 09:39:50;;;;;;;4.35;1.88;;;;;;;17.23;100.00;101291.75;5047538;28;20037;-51
2023/10/03 09:42:17;;;;;;;4.20;1.50;;;;;;;17.17;100.00;101284.31;5049121;28;20029;-51
2023/10/03 09:44:48;;;;;;;8.85;1.60;;;;;;;17.14;100.00;101280.09;5046339;28;20029;-51
2023/10/03 09:47:17;;;;;;;2.75;1.30;;;;;;;17.11;100.00;101282.22;5048086;28;20075;-51
2023/10/03 09:49:43;;;;;;;5.65;1.70;;;;;;;17.11;100.00;101299.16;5051013;28;20033;-53
2023/10/03 09:52:18;;;;;;;6.20;1.70;;;;;;;17.07;100.00;101307.66;5051303;28;20386;-51
2023/10/03 09:54:43;;;;;;;6.07;1.52;;;;;;;17.05;100.00;101305.13;5051374;28;20025;-51
2023/10/03 09:57:16;;;;;;;5.65;1.65;;;;;;;17.04;100.00;101311.50;5050326;28;20097;-54
2023/10/03 09:59:49;;;;;;;4.68;1.38;;;;;;;17.04;100.00;101316.88;5051402;28;20094;-51
2023/10/03 10:02:16;;;;;;;4.72;1.38;;;;;;;17.01;100.00;101309.09;5051446;28;20052;-53
2023/10/03 10:04:44;;;;;;;3.60;1.52;;;;;;;17.02;100.00;101310.81;5050153;28;20023;-51
2023/10/03 10:07:16;;;;;;;5.80;1.70;;;;;;;17.04;100.00;101330.28;5046041;28;20027;-51
2023/10/03 10:09:56;;;;;;;3.40;1.25;;;;;;;17.06;100.00;101336.34;5044388;28;20041;-51
2023/10/03 10:12:22;;;;;;;6.97;1.40;;;;;;;17.06;100.00;101320.25;5048456;28;20064;-50
2023/10/03 10:17:55;;;;;;;4.53;1.67;;;;;;;17.05;100.00;101350.75;5045544;28;20052;-50
2023/10/03 10:20:27;;;;;;;4.28;1.42;;;;;;;16.96;100.00;101367.75;5048842;28;20063;-51
2023/10/03 10:23:02;;;;;;;4.20;1.55;;;;;;;16.93;100.00;101381.44;5045968;28;20041;-51
2023/10/03 10:25:30;;;;;;;5.97;1.70;;;;;;;16.84;100.00;101385.81;5053438;28;20032;-53
2023/10/03 10:28:06;;;;;;;8.75;1.90;;;;;;;16.84;100.00;101380.47;5051979;28;20032;-50
2023/10/03 10:30:35;;;;;;;3.85;1.60;;;;;;;16.90;100.00;101387.94;5053574;28;20112;-51
2023/10/03 10:33:16;;;;;;;4.88;1.60;;;;;;;16.96;100.00;101386.53;5050608;28;20030;-50
2023/10/03 10:36:03;;;;;;;4.68;2.28;;;;;;;17.00;100.00;101386.09;5049657;28;20491;-50
2023/10/03 10:38:31;;;;;;;4.68;1.40;;;;;;;17.04;100.00;101388.47;5051394;28;20116;-51
2023/10/03 10:41:29;;;;;;;2.80;1.27;;;;;;;17.11;100.00;101403.84;5050992;28;20433;-51
2023/10/03 10:44:13;;;;;;;7.10;1.40;;;;;;;17.16;100.00;101409.63;5004049;28;20380;-54
2023/10/03 10:46:52;;;;;;;3.33;0.88;;;;;;;17.12;99.36;101421.66;5053481;28;20055;-51
2023/10/03 10:49:33;;;;;;;1.77;0.70;;;;;;;17.18;100.00;101428.25;5053276;28;20072;-51
2023/10/03 10:52:06;;;;;;;1.80;0.70;;;;;;;17.12;99.23;101429.69;5050415;28;20659;-51
2023/10/03 10:54:33;;;;;;;1.77;0.52;;;;;;;17.05;99.63;101430.41;5047845;28;20091;-54
2023/10/03 10:57:07;;;;;;;1.80;0.63;;;;;;;16.97;100.00;101426.63;5052309;28;20033;-52
2023/10/03 10:59:40;;;;;;;3.80;0.98;;;;;;;16.95;100.00;101431.31;5050131;28;20053;-52
2023/10/03 11:02:17;;;;;;;0.80;0.60;;;;;;;16.93;100.00;101449.38;5051541;28;20066;-52
2023/10/03 11:04:43;;;;;;;3.45;1.00;;;;;;;16.90;100.00;101444.28;5051634;28;20531;-51
2023/10/03 11:07:09;;;;;;;2.28;0.88;;;;;;;16.86;100.00;101447.41;5051751;28;20025;-52
2023/10/03 11:09:36;;;;;;;2.45;0.75;;;;;;;16.84;100.00;101444.84;5052034;28;20029;-53
2023/10/03 11:12:06;;;;;;;1.02;0.60;;;;;;;16.89;100.00;101447.13;5050713;28;20025;-52
2023/10/03 11:14:33;;;;;;;1.10;0.68;;;;;;;16.90;100.00;101448.81;5048986;28;20016;-55
2023/10/03 11:16:59;;;;;;;3.20;1.23;;;;;;;16.90;100.00;101448.81;5050559;28;20026;-52
2023/10/03 11:19:26;;;;;;;2.90;0.90;;;;;;;16.92;100.00;101449.50;5054104;28;20143;-54
2023/10/03 11:21:51;;;;;;;2.50;0.90;;;;;;;16.96;100.00;101443.72;5051130;28;20036;-52
2023/10/03 11:24:20;;;;;;;2.00;0.80;;;;;;;17.06;100.00;101445.53;5049223;28;20029;-50